createdAt,value
2022-09-02T00:03:18.063Z,53.20
2022-09-02T00:08:22.279Z,53.21
2022-09-02T00:13:25.408Z,52.95
2022-09-02T00:18:28.178Z,53.28
2022-09-02T00:23:33.327Z,53.30
2022-09-02T00:28:36.714Z,53.25
2022-09-02T00:33:39.686Z,53.53
2022-09-02T00:38:43.779Z,53.55
2022-09-02T00:43:50.199Z,53.46
2022-09-02T00:48:58.277Z,53.82
2022-09-02T00:54:02.861Z,53.82
2022-09-02T00:59:05.903Z,53.85
2022-09-02T01:04:08.900Z,54.17
2022-09-02T01:09:16.172Z,54.19
2022-09-02T01:14:19.103Z,54.22
2022-09-02T01:19:24.990Z,54.27
2022-09-02T01:24:31.474Z,54.14
2022-09-02T01:29:34.272Z,54.30
2022-09-02T01:34:37.988Z,54.54
2022-09-02T01:39:42.849Z,54.54
2022-09-02T01:44:46.303Z,54.71
2022-09-02T01:49:50.742Z,54.83
2022-09-02T01:54:55.629Z,54.74
2022-09-02T01:59:58.655Z,54.78
2022-09-02T02:05:02.709Z,55.00
2022-09-02T02:10:08.453Z,54.88
2022-09-02T02:15:14.904Z,54.85
2022-09-02T02:20:19.831Z,55.15
2022-09-02T02:25:24.120Z,54.98
2022-09-02T02:30:29.814Z,55.05
2022-09-02T02:35:33.448Z,55.17
2022-09-02T02:40:38.472Z,55.38
2022-09-02T02:45:41.896Z,55.37
2022-09-02T02:50:47.372Z,55.64
2022-09-02T02:55:51.909Z,55.58
2022-09-02T03:00:55.836Z,55.60
2022-09-02T03:05:59.184Z,55.61
2022-09-02T03:11:06.983Z,55.80
2022-09-02T03:16:14.022Z,55.48
2022-09-02T03:21:18.732Z,55.59
2022-09-02T03:26:25.791Z,55.80
2022-09-02T03:31:29.317Z,55.82
2022-09-02T03:36:36.055Z,55.40
2022-09-02T03:41:41.964Z,55.58
2022-09-02T03:46:45.546Z,55.57
2022-09-02T03:51:48.302Z,55.48
2022-09-02T03:56:53.821Z,55.46
2022-09-02T04:01:57.030Z,55.48
2022-09-02T04:07:00.397Z,55.40
2022-09-02T04:12:07.067Z,55.32
2022-09-02T04:17:11.014Z,55.38
2022-09-02T04:22:13.824Z,55.29
2022-09-02T04:27:18.086Z,55.14
2022-09-02T04:32:21.754Z,55.14
2022-09-02T04:37:25.633Z,55.15
2022-09-02T04:42:29.841Z,55.09
2022-09-02T04:47:33.423Z,55.12
2022-09-02T04:52:37.264Z,55.09
2022-09-02T04:57:42.109Z,55.00
2022-09-02T05:02:45.046Z,54.95
2022-09-02T05:07:47.893Z,55.17
2022-09-02T05:12:53.367Z,55.32
2022-09-02T05:17:56.311Z,55.47
2022-09-02T05:23:00.365Z,55.52
2022-09-02T05:28:05.968Z,55.60
2022-09-02T05:33:10.425Z,55.64
2022-09-02T05:38:17.277Z,55.74
2022-09-02T05:43:23.911Z,55.66
2022-09-02T05:48:44.286Z,55.71
2022-09-02T05:53:48.011Z,55.56
2022-09-02T05:58:52.995Z,55.63
2022-09-02T06:03:57.457Z,55.66
2022-09-02T06:09:00.578Z,55.70
2022-09-02T06:14:05.894Z,55.65
2022-09-02T06:19:15.275Z,55.80
2022-09-02T06:24:24.057Z,55.84
2022-09-02T06:29:28.933Z,55.87
2022-09-02T06:34:32.016Z,55.80
2022-09-02T06:39:35.904Z,55.68
2022-09-02T06:44:42.096Z,55.82
2022-09-02T06:49:44.956Z,55.80
2022-09-02T06:54:49.068Z,55.71
2022-09-02T06:59:53.306Z,55.74
2022-09-02T07:05:10.540Z,55.67
2022-09-02T07:10:15.412Z,55.76
2022-09-02T07:15:25.316Z,55.97
2022-09-02T07:20:29.366Z,55.10
2022-09-02T07:25:35.582Z,55.57
2022-09-02T07:30:42.531Z,54.08
2022-09-02T07:35:50.248Z,54.11
2022-09-02T07:40:56.729Z,53.24
2022-09-02T07:46:03.444Z,52.56
2022-09-02T07:51:08.191Z,53.56
2022-09-02T07:56:14.995Z,53.27
2022-09-02T08:01:23.439Z,53.07
2022-09-02T08:06:34.607Z,52.90
2022-09-02T08:11:39.278Z,53.13
2022-09-02T08:16:43.822Z,52.78
2022-09-02T08:21:46.585Z,53.06
2022-09-02T08:26:49.799Z,52.98
2022-09-02T08:31:54.347Z,53.02
2022-09-02T08:36:57.969Z,53.17
2022-09-02T08:42:08.712Z,52.91
2022-09-02T08:47:17.682Z,53.01
2022-09-02T08:52:27.440Z,52.58
2022-09-02T08:57:32.732Z,51.98
2022-09-02T09:02:47.692Z,51.86
2022-09-02T09:08:04.877Z,51.48
2022-09-02T09:13:23.290Z,51.18
2022-09-02T09:18:41.290Z,52.34
2022-09-02T09:23:45.162Z,52.93
2022-09-02T09:28:50.255Z,53.19
2022-09-02T09:33:58.568Z,52.86
2022-09-02T09:39:19.105Z,52.25
2022-09-02T09:44:45.016Z,52.18
2022-09-02T09:49:51.281Z,51.85
2022-09-02T09:55:12.556Z,51.59
2022-09-02T10:00:22.463Z,51.60
2022-09-02T10:05:35.982Z,51.97
2022-09-02T10:10:38.746Z,52.36
2022-09-02T10:15:51.002Z,51.51
2022-09-02T10:21:18.672Z,52.03
2022-09-02T10:26:34.121Z,53.30
2022-09-02T10:31:42.591Z,53.80
2022-09-02T10:37:08.641Z,54.94
2022-09-02T10:42:22.440Z,55.28
2022-09-02T10:47:33.807Z,55.41
2022-09-02T10:53:02.785Z,55.49
2022-09-02T10:58:13.986Z,55.33
2022-09-02T11:03:25.068Z,55.34
2022-09-02T11:08:37.584Z,55.15
2022-09-02T11:13:50.931Z,54.66
2022-09-02T11:19:01.906Z,54.21
2022-09-02T11:24:11.191Z,54.24
2022-09-02T11:29:19.406Z,54.63
2022-09-02T11:34:36.056Z,54.74
2022-09-02T11:39:58.932Z,55.21
2022-09-02T11:45:29.584Z,55.42
2022-09-02T11:50:48.085Z,55.42
2022-09-02T11:55:56.732Z,55.62
2022-09-02T12:01:18.417Z,55.88
2022-09-02T12:06:27.771Z,55.77
2022-09-02T12:11:46.925Z,55.75
2022-09-02T12:17:03.668Z,55.69
2022-09-02T12:22:28.899Z,55.21
2022-09-02T12:27:36.593Z,54.06
2022-09-02T12:33:05.246Z,53.43
2022-09-02T12:38:35.709Z,53.63
2022-09-02T12:43:49.741Z,53.32
2022-09-02T12:49:05.498Z,53.71
2022-09-02T12:54:09.065Z,53.45
2022-09-02T12:59:13.332Z,53.09
2022-09-02T13:04:31.627Z,53.38
2022-09-02T13:10:02.083Z,53.92
2022-09-02T13:15:29.790Z,54.39
2022-09-02T13:21:11.626Z,54.34
2022-09-02T13:26:48.241Z,53.20
2022-09-02T13:32:05.037Z,52.86
2022-09-02T13:37:10.581Z,52.58
2022-09-02T13:42:15.920Z,52.38
2022-09-02T13:47:22.906Z,52.33
2022-09-02T13:53:19.688Z,51.94
2022-09-02T13:57:56.903Z,51.81
2022-09-02T14:03:05.295Z,52.02
2022-09-02T14:08:13.898Z,52.22
2022-09-02T14:13:17.765Z,52.39
2022-09-02T14:18:25.565Z,51.90
2022-09-02T14:23:33.326Z,52.12
2022-09-02T14:28:37.041Z,52.05
2022-09-02T14:33:43.400Z,52.23
2022-09-02T14:38:55.620Z,52.75
2022-09-02T14:44:00.656Z,53.01
2022-09-02T14:49:07.947Z,52.80
2022-09-02T14:54:11.471Z,52.61
2022-09-02T14:59:14.317Z,52.45
2022-09-02T15:04:19.385Z,52.30
2022-09-02T15:09:22.125Z,51.90
2022-09-02T15:14:24.992Z,51.85
2022-09-02T15:19:29.482Z,52.26
2022-09-02T15:24:32.342Z,51.67
2022-09-02T15:29:35.399Z,51.33
2022-09-02T15:34:39.631Z,51.46
2022-09-02T15:39:42.352Z,51.22
2022-09-02T15:44:45.486Z,50.91
2022-09-02T15:49:49.765Z,50.87
2022-09-02T15:54:54.584Z,51.02
2022-09-02T15:59:57.309Z,51.98
2022-09-02T16:05:01.587Z,52.47
2022-09-02T16:10:04.610Z,52.53
2022-09-02T16:15:08.987Z,52.35
2022-09-02T16:20:14.656Z,52.69
2022-09-02T16:25:19.157Z,51.13
2022-09-02T16:30:21.932Z,50.47
2022-09-02T16:35:26.018Z,50.17
2022-09-02T16:40:28.787Z,49.88
2022-09-02T16:45:31.969Z,49.63
2022-09-02T16:50:35.984Z,49.86
2022-09-02T16:55:41.547Z,49.77
2022-09-02T17:00:45.254Z,49.78
2022-09-02T17:05:49.330Z,49.55
2022-09-02T17:10:52.155Z,49.06
2022-09-02T17:15:54.967Z,49.26
2022-09-02T17:21:16.304Z,50.15
2022-09-02T17:26:20.119Z,49.11
2022-09-02T17:31:25.694Z,49.63
2022-09-02T17:36:31.879Z,49.60
2022-09-02T17:41:52.082Z,49.42
2022-09-02T17:46:56.707Z,49.43
2022-09-02T17:52:00.902Z,49.24
2022-09-02T17:57:20.118Z,49.30
2022-09-02T18:02:38.963Z,49.17
2022-09-02T18:07:50.905Z,49.36
2022-09-02T18:12:53.683Z,49.18
2022-09-02T18:17:56.411Z,48.40
2022-09-02T18:23:15.500Z,48.60
2022-09-02T18:28:32.627Z,49.93
2022-09-02T18:33:56.684Z,50.16
2022-09-02T18:39:21.501Z,50.49
2022-09-02T18:44:36.533Z,50.51
2022-09-02T18:49:39.744Z,51.11
2022-09-02T18:54:48.310Z,51.04
2022-09-02T18:59:54.716Z,51.18
2022-09-02T19:04:58.601Z,51.18
2022-09-02T19:10:08.942Z,51.47
2022-09-02T19:15:13.570Z,51.08
2022-09-02T19:20:17.670Z,51.45
2022-09-02T19:25:31.334Z,51.20
2022-09-02T19:30:37.372Z,51.14
2022-09-02T19:35:46.437Z,51.33
2022-09-02T19:40:50.542Z,51.48
2022-09-02T19:45:53.483Z,51.58
2022-09-02T19:50:56.543Z,51.72
2022-09-02T19:56:01.328Z,51.42
2022-09-02T20:01:05.254Z,51.36
2022-09-02T20:06:08.127Z,51.42
2022-09-02T20:11:12.183Z,51.64
2022-09-02T20:16:18.276Z,51.43
2022-09-02T20:21:24.474Z,51.47
2022-09-02T20:26:41.951Z,51.61
2022-09-02T20:31:58.866Z,51.46
2022-09-02T20:37:11.123Z,51.69
2022-09-02T20:42:33.022Z,51.00
2022-09-02T20:47:50.368Z,50.91
2022-09-02T20:53:10.815Z,51.54
2022-09-02T20:58:36.812Z,51.53
2022-09-02T21:03:52.679Z,51.58
2022-09-02T21:09:03.755Z,51.50
2022-09-02T21:14:13.875Z,51.71
2022-09-02T21:19:25.014Z,51.49
2022-09-02T21:24:36.925Z,51.76
2022-09-02T21:29:47.196Z,51.70
2022-09-02T21:34:56.580Z,51.83
2022-09-02T21:40:06.162Z,51.57
2022-09-02T21:45:18.256Z,51.67
2022-09-02T21:50:27.993Z,51.95
2022-09-02T21:55:42.189Z,52.05
2022-09-02T22:00:55.559Z,51.63
2022-09-02T22:06:05.327Z,51.79
2022-09-02T22:11:13.736Z,51.85
2022-09-02T22:16:32.717Z,51.92
2022-09-02T22:21:43.712Z,51.59
2022-09-02T22:26:51.460Z,51.43
2022-09-02T22:31:59.421Z,51.80
2022-09-02T22:37:06.811Z,51.94
2022-09-02T22:42:20.032Z,52.28
2022-09-02T22:47:43.610Z,51.84
2022-09-02T22:52:54.560Z,52.07
2022-09-02T22:58:05.306Z,52.06
2022-09-02T23:03:15.593Z,51.98
2022-09-02T23:08:20.402Z,52.07
2022-09-02T23:13:39.029Z,52.17
2022-09-02T23:18:52.836Z,52.14
2022-09-02T23:24:09.233Z,52.18
2022-09-02T23:29:17.861Z,52.16
2022-09-02T23:34:35.197Z,51.92
2022-09-02T23:40:01.940Z,52.24
2022-09-02T23:45:21.726Z,52.29
2022-09-02T23:50:37.502Z,52.65
2022-09-02T23:55:48.569Z,52.51
